createdAt,value
2018-10-09T00:00:18.336Z,98274.72
2018-10-09T00:02:48.097Z,98265.95
2018-10-09T00:05:18.427Z,98267.30
2018-10-09T00:07:48.349Z,98266.44
2018-10-09T00:10:18.160Z,98263.06
2018-10-09T00:12:47.957Z,98266.81
2018-10-09T00:15:17.837Z,98265.92
2018-10-09T00:17:47.625Z,98260.73
2018-10-09T00:20:24.688Z,98260.39
2018-10-09T00:22:57.250Z,98259.16
2018-10-09T00:25:27.291Z,98267.98
2018-10-09T00:27:57.462Z,98265.41
2018-10-09T00:30:27.639Z,98263.72
2018-10-09T00:32:57.528Z,97944.54
2018-10-09T00:35:27.346Z,98262.14
2018-10-09T00:37:57.092Z,98257.49
2018-10-09T00:40:27.020Z,98256.83
2018-10-09T00:42:56.852Z,98251.23
2018-10-09T00:45:26.695Z,98252.64
2018-10-09T00:47:56.542Z,98254.53
2018-10-09T00:50:26.365Z,98260.25
2018-10-09T00:52:56.192Z,98260.73
2018-10-09T00:55:26.078Z,98260.50
2018-10-09T00:57:55.822Z,98256.09
2018-10-09T01:00:25.723Z,98252.81
2018-10-09T01:02:55.508Z,98257.41
2018-10-09T01:05:25.306Z,98247.78
2018-10-09T01:07:55.200Z,98250.98
2018-10-09T01:10:25.032Z,98252.78
2018-10-09T01:12:54.765Z,98251.98
2018-10-09T01:15:24.584Z,98253.02
2018-10-09T01:17:54.449Z,98255.84
2018-10-09T01:20:31.666Z,98252.93
2018-10-09T01:23:02.616Z,98249.95
2018-10-09T01:25:32.494Z,98248.68
2018-10-09T01:28:02.635Z,98243.84
2018-10-09T01:30:33.380Z,98245.84
2018-10-09T01:33:04.032Z,98239.83
2018-10-09T01:35:33.904Z,98238.97
2018-10-09T01:38:03.754Z,98240.69
2018-10-09T01:40:33.580Z,98241.55
2018-10-09T01:43:03.410Z,98241.55
2018-10-09T01:45:33.254Z,98239.39
2018-10-09T01:48:03.086Z,98234.56
2018-10-09T01:50:32.909Z,98235.09
2018-10-09T01:53:02.666Z,98244.02
2018-10-09T01:55:32.493Z,98242.36
2018-10-09T01:58:02.319Z,98239.27
2018-10-09T02:00:32.239Z,98240.58
2018-10-09T02:03:02.121Z,98235.89
2018-10-09T02:05:31.879Z,98233.45
2018-10-09T02:08:01.769Z,98230.49
2018-10-09T02:10:31.548Z,98231.35
2018-10-09T02:13:01.330Z,98231.45
2018-10-09T02:15:31.204Z,98238.05
2018-10-09T02:18:00.935Z,98238.61
2018-10-09T02:20:30.740Z,98234.20
2018-10-09T02:23:00.546Z,98232.09
2018-10-09T02:25:30.384Z,98230.48
2018-10-09T02:28:00.282Z,98239.73
2018-10-09T02:30:30.134Z,98237.68
2018-10-09T02:32:59.932Z,98232.17
2018-10-09T02:35:29.756Z,98231.31
2018-10-09T02:37:59.618Z,98229.61
2018-10-09T02:40:29.436Z,98226.64
2018-10-09T02:42:59.355Z,98231.09
2018-10-09T02:45:29.304Z,98230.80
2018-10-09T02:47:59.130Z,98236.56
2018-10-09T02:50:28.929Z,98227.72
2018-10-09T02:52:58.716Z,98118.11
2018-10-09T02:55:28.466Z,98236.35
2018-10-09T02:57:58.301Z,98231.95
2018-10-09T03:00:28.131Z,98237.77
2018-10-09T03:02:57.927Z,98236.45
2018-10-09T03:05:27.766Z,98239.55
2018-10-09T03:07:57.578Z,98237.83
2018-10-09T03:10:27.514Z,98242.34
2018-10-09T03:12:57.242Z,98239.70
2018-10-09T03:15:27.100Z,98244.97
2018-10-09T03:17:56.899Z,98243.13
2018-10-09T03:20:26.643Z,98246.41
2018-10-09T03:22:56.462Z,98240.09
2018-10-09T03:25:26.298Z,98251.30
2018-10-09T03:27:56.172Z,98246.38
2018-10-09T03:30:26.026Z,98258.10
2018-10-09T03:32:55.828Z,98242.03
2018-10-09T03:35:25.712Z,98156.05
2018-10-09T03:37:55.608Z,98248.63
2018-10-09T03:40:25.423Z,98256.05
2018-10-09T03:42:55.208Z,98256.86
2018-10-09T03:45:24.983Z,98255.09
2018-10-09T03:47:54.833Z,98258.00
2018-10-09T03:50:24.658Z,98264.91
2018-10-09T03:52:54.494Z,98263.08
2018-10-09T03:55:24.368Z,98266.91
2018-10-09T03:57:54.252Z,98264.17
2018-10-09T04:00:24.132Z,98269.44
2018-10-09T04:02:53.884Z,98273.78
2018-10-09T04:05:23.690Z,98272.98
2018-10-09T04:07:53.587Z,98278.23
2018-10-09T04:10:23.402Z,98274.34
2018-10-09T04:12:53.155Z,98275.27
2018-10-09T04:15:23.006Z,98279.27
2018-10-09T04:17:52.818Z,98271.42
2018-10-09T04:20:22.650Z,98272.64
2018-10-09T04:22:52.759Z,98271.78
2018-10-09T04:25:22.555Z,98275.27
2018-10-09T04:27:52.395Z,98267.38
2018-10-09T04:30:22.416Z,98269.13
2018-10-09T04:32:52.270Z,98269.53
2018-10-09T04:35:21.996Z,98270.39
2018-10-09T04:37:52.533Z,98267.36
2018-10-09T04:40:22.503Z,98265.64
2018-10-09T04:42:52.410Z,98270.06
2018-10-09T04:45:22.252Z,98270.11
2018-10-09T04:47:51.976Z,98271.88
2018-10-09T04:50:21.876Z,98267.98
2018-10-09T04:52:51.818Z,98264.48
2018-10-09T04:55:21.700Z,98266.23
2018-10-09T04:57:51.532Z,98274.11
2018-10-09T05:00:22.238Z,98277.55
2018-10-09T05:02:52.053Z,98282.29
2018-10-09T05:05:21.767Z,98280.06
2018-10-09T05:07:51.826Z,98282.14
2018-10-09T05:10:21.566Z,98284.30
2018-10-09T05:12:51.260Z,98295.64
2018-10-09T05:15:22.079Z,98299.63
2018-10-09T05:17:51.729Z,98296.16
2018-10-09T05:20:21.638Z,98302.17
2018-10-09T05:22:51.542Z,98308.34
2018-10-09T05:25:21.468Z,98307.94
2018-10-09T05:27:51.525Z,98315.78
2018-10-09T05:30:21.457Z,98315.78
2018-10-09T05:32:51.444Z,98316.58
2018-10-09T05:35:21.283Z,98308.22
2018-10-09T05:37:51.210Z,98315.20
2018-10-09T05:40:21.242Z,98315.16
2018-10-09T05:42:51.153Z,98316.87
2018-10-09T05:45:21.152Z,98308.91
2018-10-09T05:47:51.093Z,98317.27
2018-10-09T05:50:21.064Z,98319.84
2018-10-09T05:52:50.961Z,98325.57
2018-10-09T05:55:20.773Z,98321.62
2018-10-09T05:57:50.704Z,98329.52
2018-10-09T06:00:20.762Z,98330.19
2018-10-09T06:02:50.718Z,98335.64
2018-10-09T06:05:20.705Z,98338.14
2018-10-09T06:07:50.746Z,98341.68
2018-10-09T06:10:20.676Z,98343.19
2018-10-09T06:12:50.536Z,98343.49
2018-10-09T06:15:20.453Z,98352.86
2018-10-09T06:17:50.282Z,98357.21
2018-10-09T06:20:20.260Z,98356.20
2018-10-09T06:22:50.238Z,98366.05
2018-10-09T06:25:20.119Z,98372.45
2018-10-09T06:27:50.105Z,98367.47
2018-10-09T06:30:20.079Z,98378.47
2018-10-09T06:32:49.984Z,98378.92
2018-10-09T06:35:19.874Z,98381.76
2018-10-09T06:37:49.886Z,98376.66
2018-10-09T06:40:19.666Z,98383.59
2018-10-09T06:42:49.630Z,98387.13
2018-10-09T06:45:19.526Z,98384.50
2018-10-09T06:47:49.527Z,98390.84
2018-10-09T06:50:19.486Z,98391.19
2018-10-09T06:52:49.376Z,98388.55
2018-10-09T06:55:19.264Z,98389.28
2018-10-09T06:57:49.158Z,98389.17
2018-10-09T07:00:19.192Z,98386.51
2018-10-09T07:02:50.058Z,98388.62
2018-10-09T07:05:19.949Z,98394.21
2018-10-09T07:07:49.875Z,98402.47
2018-10-09T07:10:19.790Z,98399.89
2018-10-09T07:12:49.784Z,98411.62
2018-10-09T07:15:19.626Z,98403.14
2018-10-09T07:17:49.502Z,98405.94
2018-10-09T07:20:19.491Z,98407.77
2018-10-09T07:22:49.409Z,98410.78
2018-10-09T07:25:19.263Z,98413.63
2018-10-09T07:27:49.184Z,98413.28
2018-10-09T07:30:19.048Z,98417.47
2018-10-09T07:32:48.909Z,98424.39
2018-10-09T07:35:18.756Z,98422.98
2018-10-09T07:37:48.688Z,98432.69
2018-10-09T07:40:18.642Z,98429.61
2018-10-09T07:42:48.446Z,98427.80
2018-10-09T07:45:18.458Z,98426.77
2018-10-09T07:47:48.412Z,98350.34
2018-10-09T07:50:18.410Z,98440.17
2018-10-09T07:52:48.413Z,98433.95
2018-10-09T07:55:18.290Z,98439.17
2018-10-09T07:57:48.288Z,98441.67
2018-10-09T08:00:18.250Z,98434.95
2018-10-09T08:02:48.151Z,98328.67
2018-10-09T08:05:18.130Z,98432.17
2018-10-09T08:07:48.075Z,98433.43
2018-10-09T08:10:18.071Z,98436.85
2018-10-09T08:12:48.063Z,98443.05
2018-10-09T08:15:18.198Z,98435.19
2018-10-09T08:17:48.218Z,98318.13
2018-10-09T08:20:18.207Z,98436.01
2018-10-09T08:22:48.295Z,98441.29
2018-10-09T08:25:18.180Z,98443.55
2018-10-09T08:27:48.026Z,98445.87
2018-10-09T08:30:17.989Z,98469.84
2018-10-09T08:32:47.885Z,98456.11
2018-10-09T08:35:17.932Z,98447.50
2018-10-09T08:37:47.910Z,98441.54
2018-10-09T08:40:17.870Z,98442.41
2018-10-09T08:42:47.843Z,98439.34
2018-10-09T08:45:17.796Z,98436.27
2018-10-09T08:47:47.720Z,98441.88
2018-10-09T08:50:17.656Z,98430.36
2018-10-09T08:52:47.694Z,98438.70
2018-10-09T08:55:17.656Z,98410.63
2018-10-09T08:57:47.534Z,98434.90
2018-10-09T09:00:17.515Z,98432.20
2018-10-09T09:02:47.480Z,98431.46
2018-10-09T09:05:17.432Z,98431.70
2018-10-09T09:07:47.427Z,98430.25
2018-10-09T09:10:17.247Z,98430.33
2018-10-09T09:12:47.171Z,98430.92
2018-10-09T09:15:17.257Z,98426.68
2018-10-09T09:17:47.134Z,98426.40
2018-10-09T09:20:17.096Z,98422.44
2018-10-09T09:22:46.951Z,98422.63
2018-10-09T09:25:16.904Z,98417.27
2018-10-09T09:27:46.934Z,98410.70
2018-10-09T09:30:16.897Z,98419.17
2018-10-09T09:32:46.779Z,98422.20
2018-10-09T09:35:16.686Z,98421.75
2018-10-09T09:37:46.625Z,98421.98
2018-10-09T09:40:16.552Z,98425.67
2018-10-09T09:42:46.475Z,98422.63
2018-10-09T09:45:16.514Z,98423.44
2018-10-09T09:47:46.310Z,98414.52
2018-10-09T09:50:16.228Z,98404.66
2018-10-09T09:52:46.242Z,98414.41
2018-10-09T09:55:16.233Z,98412.02
2018-10-09T09:57:46.281Z,98409.80
2018-10-09T10:00:21.357Z,98411.37
2018-10-09T10:02:51.338Z,98409.23
2018-10-09T10:05:21.343Z,98410.95
2018-10-09T10:07:51.321Z,98406.57
2018-10-09T10:10:21.299Z,98405.77
2018-10-09T10:12:51.168Z,98405.20
2018-10-09T10:15:21.155Z,98413.13
2018-10-09T10:17:51.081Z,98406.57
2018-10-09T10:20:21.036Z,98407.76
2018-10-09T10:22:51.044Z,98406.34
2018-10-09T10:25:21.051Z,98401.11
2018-10-09T10:27:51.018Z,98404.62
2018-10-09T10:30:21.015Z,98395.55
2018-10-09T10:32:50.928Z,98397.39
2018-10-09T10:35:20.935Z,98393.34
2018-10-09T10:37:50.923Z,98393.28
2018-10-09T10:40:20.909Z,98394.28
2018-10-09T10:42:50.911Z,98386.78
2018-10-09T10:45:20.942Z,98389.30
2018-10-09T10:47:50.931Z,98381.45
2018-10-09T10:50:20.853Z,98383.34
2018-10-09T10:52:50.893Z,98377.27
2018-10-09T10:55:20.771Z,98381.16
2018-10-09T10:57:50.712Z,98381.16
2018-10-09T11:00:20.707Z,98379.06
2018-10-09T11:02:50.625Z,98377.96
2018-10-09T11:05:20.583Z,98379.52
2018-10-09T11:07:50.627Z,98271.92
2018-10-09T11:10:20.530Z,98229.28
2018-10-09T11:12:50.471Z,98368.66
2018-10-09T11:15:20.485Z,98367.88
2018-10-09T11:17:50.568Z,98359.95
2018-10-09T11:20:21.072Z,98367.17
2018-10-09T11:22:50.997Z,98362.95
2018-10-09T11:25:20.939Z,98357.45
2018-10-09T11:27:50.872Z,98357.70
2018-10-09T11:30:20.841Z,98358.02
2018-10-09T11:32:50.808Z,98350.52
2018-10-09T11:35:20.822Z,98344.41
2018-10-09T11:37:50.774Z,98347.31
2018-10-09T11:40:20.721Z,98349.17
2018-10-09T11:42:50.866Z,98344.10
2018-10-09T11:45:20.750Z,98343.72
2018-10-09T11:47:50.746Z,98340.53
2018-10-09T11:50:20.800Z,98350.05
2018-10-09T11:52:50.771Z,98346.73
2018-10-09T11:55:20.704Z,98339.22
2018-10-09T11:57:50.744Z,98338.78
2018-10-09T12:00:20.692Z,98334.55
2018-10-09T12:02:50.634Z,98332.37
2018-10-09T12:05:20.730Z,98328.62
2018-10-09T12:07:50.739Z,98331.84
2018-10-09T12:10:20.695Z,98335.27
2018-10-09T12:12:50.660Z,98325.25
2018-10-09T12:15:20.970Z,98336.18
2018-10-09T12:17:50.956Z,98331.19
2018-10-09T12:20:20.954Z,98334.00
2018-10-09T12:22:50.895Z,98325.54
2018-10-09T12:25:20.845Z,98321.73
2018-10-09T12:27:50.792Z,98153.00
2018-10-09T12:30:20.718Z,98323.73
2018-10-09T12:32:50.667Z,98315.52
2018-10-09T12:35:20.489Z,98318.80
2018-10-09T12:37:50.419Z,98316.19
2018-10-09T12:40:20.280Z,98319.13
2018-10-09T12:42:50.179Z,98314.77
2018-10-09T12:45:20.235Z,98318.33
2018-10-09T12:47:50.203Z,98316.86
2018-10-09T12:50:20.109Z,98322.08
2018-10-09T12:52:50.004Z,98319.08
2018-10-09T12:55:19.860Z,98311.36
2018-10-09T12:57:49.768Z,98317.92
2018-10-09T13:00:19.623Z,98321.53
2018-10-09T13:02:49.474Z,98321.63
2018-10-09T13:05:19.432Z,98319.78
2018-10-09T13:07:49.290Z,98317.45
2018-10-09T13:10:19.270Z,98315.27
2018-10-09T13:12:49.151Z,98315.66
2018-10-09T13:15:19.012Z,98307.64
2018-10-09T13:17:48.931Z,98312.44
2018-10-09T13:20:18.911Z,98312.44
2018-10-09T13:22:48.955Z,98314.38
2018-10-09T13:25:18.817Z,98307.96
2018-10-09T13:27:48.690Z,98315.89
2018-10-09T13:30:18.567Z,98317.36
2018-10-09T13:32:48.413Z,98314.02
2018-10-09T13:35:18.378Z,98317.39
2018-10-09T13:37:48.150Z,98313.36
2018-10-09T13:40:18.078Z,98313.03
2018-10-09T13:42:48.030Z,98312.19
2018-10-09T13:45:17.913Z,98315.76
2018-10-09T13:47:47.795Z,98315.63
2018-10-09T13:50:17.788Z,98314.09
2018-10-09T13:52:47.621Z,98315.95
2018-10-09T13:55:17.668Z,98308.53
2018-10-09T13:57:47.547Z,98312.67
2018-10-09T14:00:17.548Z,98308.16
2018-10-09T14:02:47.471Z,98307.30
2018-10-09T14:05:17.409Z,98306.02
2018-10-09T14:07:47.218Z,98306.68
2018-10-09T14:10:17.069Z,98298.23
2018-10-09T14:12:47.007Z,98303.31
2018-10-09T14:15:16.943Z,98296.05
2018-10-09T14:17:46.679Z,98297.38
2018-10-09T14:20:16.650Z,98294.98
2018-10-09T14:22:46.418Z,98306.25
2018-10-09T14:25:16.578Z,98299.98
2018-10-09T14:27:46.579Z,98300.55
2018-10-09T14:30:16.351Z,98306.02
2018-10-09T14:32:46.287Z,98299.52
2018-10-09T14:35:16.134Z,98298.45
2018-10-09T14:37:45.964Z,98301.97
2018-10-09T14:40:15.844Z,98301.64
2018-10-09T14:42:45.903Z,98296.89
2018-10-09T14:45:15.734Z,98296.33
2018-10-09T14:47:45.530Z,98296.80
2018-10-09T14:50:15.467Z,98294.14
2018-10-09T14:52:45.367Z,98295.14
2018-10-09T14:55:15.363Z,98290.67
2018-10-09T14:57:45.161Z,98289.62
2018-10-09T15:00:15.050Z,98296.00
2018-10-09T15:02:44.991Z,98286.25
2018-10-09T15:05:14.935Z,98291.56
2018-10-09T15:07:44.782Z,98296.73
2018-10-09T15:10:14.754Z,98290.09
2018-10-09T15:12:44.722Z,98291.42
2018-10-09T15:15:14.631Z,98290.56
2018-10-09T15:17:44.483Z,98293.86
2018-10-09T15:20:14.471Z,98291.83
2018-10-09T15:22:44.382Z,98294.19
2018-10-09T15:25:14.209Z,98293.09
2018-10-09T15:27:44.223Z,98300.29
2018-10-09T15:30:14.102Z,98300.20
2018-10-09T15:32:44.051Z,98296.45
2018-10-09T15:35:13.995Z,98300.11
2018-10-09T15:37:44.278Z,98302.23
2018-10-09T15:40:14.122Z,98310.91
2018-10-09T15:42:44.039Z,98309.27
2018-10-09T15:45:13.958Z,98299.44
2018-10-09T15:47:43.910Z,98305.74
2018-10-09T15:50:13.934Z,98308.95
2018-10-09T15:52:44.109Z,98309.59
2018-10-09T15:55:14.105Z,98313.42
2018-10-09T15:57:43.896Z,98319.03
2018-10-09T16:00:13.758Z,98314.03
2018-10-09T16:02:44.609Z,98313.39
2018-10-09T16:05:14.533Z,98314.27
2018-10-09T16:07:44.448Z,98319.56
2018-10-09T16:10:14.332Z,98329.31
2018-10-09T16:12:44.151Z,98323.97
2018-10-09T16:15:14.062Z,98321.69
2018-10-09T16:17:44.339Z,98326.08
2018-10-09T16:20:14.206Z,98321.14
2018-10-09T16:22:44.183Z,98325.18
2018-10-09T16:25:14.158Z,98328.58
2018-10-09T16:27:44.084Z,98329.77
2018-10-09T16:30:14.012Z,98326.14
2018-10-09T16:32:44.010Z,98332.16
2018-10-09T16:35:13.835Z,98332.44
2018-10-09T16:37:43.975Z,98339.72
2018-10-09T16:40:13.775Z,98338.20
2018-10-09T16:42:43.570Z,98340.27
2018-10-09T16:45:13.475Z,98342.80
2018-10-09T16:47:43.422Z,98345.00
2018-10-09T16:50:13.347Z,98348.38
2018-10-09T16:52:43.237Z,98173.95
2018-10-09T16:55:13.020Z,98347.65
2018-10-09T16:57:46.666Z,98346.12
2018-10-09T17:00:16.771Z,98350.28
2018-10-09T17:02:46.750Z,98349.60
2018-10-09T17:05:18.195Z,98351.11
2018-10-09T17:07:48.166Z,98345.28
2018-10-09T17:10:17.970Z,98351.36
2018-10-09T17:12:48.047Z,98355.55
2018-10-09T17:15:19.253Z,98325.57
2018-10-09T17:17:49.845Z,98358.62
2018-10-09T17:20:20.308Z,98358.76
2018-10-09T17:22:50.470Z,98357.61
2018-10-09T17:25:21.074Z,98354.17
2018-10-09T17:27:51.573Z,98357.71
2018-10-09T17:30:22.478Z,98350.84
2018-10-09T17:32:52.922Z,98119.47
2018-10-09T17:35:23.034Z,98359.12
2018-10-09T17:37:53.854Z,98364.95
2018-10-09T17:40:24.767Z,98365.97
2018-10-09T17:42:55.466Z,98365.71
2018-10-09T17:45:26.522Z,98032.98
2018-10-09T17:47:56.280Z,98369.52
2018-10-09T17:50:26.300Z,98366.97
2018-10-09T17:52:56.802Z,98377.25
2018-10-09T17:55:26.654Z,98384.06
2018-10-09T17:57:56.447Z,98379.40
2018-10-09T18:00:27.060Z,98378.64
2018-10-09T18:02:57.695Z,98385.31
2018-10-09T18:05:28.327Z,98379.69
2018-10-09T18:07:58.730Z,98383.29
2018-10-09T18:10:28.598Z,98389.50
2018-10-09T18:12:58.792Z,98387.38
2018-10-09T18:15:28.787Z,98388.41
2018-10-09T18:17:59.238Z,98388.53
2018-10-09T18:20:29.596Z,98393.05
2018-10-09T18:22:59.719Z,98392.35
2018-10-09T18:25:30.797Z,98398.50
2018-10-09T18:28:01.449Z,98397.23
2018-10-09T18:30:31.543Z,98398.16
2018-10-09T18:33:02.398Z,98395.18
2018-10-09T18:35:33.945Z,98393.06
2018-10-09T18:38:04.094Z,98395.70
2018-10-09T18:40:33.968Z,98395.80
2018-10-09T18:43:05.826Z,98395.13
2018-10-09T18:45:35.960Z,98395.80
2018-10-09T18:48:05.855Z,98392.84
2018-10-09T18:50:35.746Z,98397.21
2018-10-09T18:53:05.799Z,98396.28
2018-10-09T18:55:35.956Z,98398.92
2018-10-09T18:58:05.943Z,98402.09
2018-10-09T19:00:35.852Z,98403.50
2018-10-09T19:03:05.862Z,98414.25
2018-10-09T19:05:35.851Z,98405.55
2018-10-09T19:08:06.031Z,98410.56
2018-10-09T19:10:35.881Z,98410.70
2018-10-09T19:13:05.786Z,98410.33
2018-10-09T19:15:35.585Z,98406.48
2018-10-09T19:18:05.427Z,98413.55
2018-10-09T19:20:35.482Z,98414.50
2018-10-09T19:23:05.528Z,98412.03
2018-10-09T19:25:35.794Z,98407.21
2018-10-09T19:28:06.172Z,98417.40
2018-10-09T19:30:36.287Z,98414.76
2018-10-09T19:33:06.508Z,98421.50
2018-10-09T19:35:36.702Z,98422.87
2018-10-09T19:38:07.882Z,98424.72
2018-10-09T19:40:37.767Z,98424.80
2018-10-09T19:43:07.567Z,98424.00
2018-10-09T19:45:37.607Z,98424.11
2018-10-09T19:48:07.519Z,98423.39
2018-10-09T19:50:37.517Z,98431.45
2018-10-09T19:53:07.450Z,98431.58
2018-10-09T19:55:37.772Z,98427.62
2018-10-09T19:58:07.932Z,98433.93
2018-10-09T20:00:38.238Z,98436.70
2018-10-09T20:03:08.235Z,98442.52
2018-10-09T20:05:38.110Z,98444.86
2018-10-09T20:08:07.995Z,98451.91
2018-10-09T20:10:37.798Z,98448.89
2018-10-09T20:13:07.916Z,98456.86
2018-10-09T20:15:37.793Z,98462.09
2018-10-09T20:18:07.867Z,98460.36
2018-10-09T20:20:37.802Z,98467.88
2018-10-09T20:23:07.755Z,98435.02
2018-10-09T20:25:37.512Z,98469.27
2018-10-09T20:28:07.440Z,98471.50
2018-10-09T20:30:37.308Z,98465.88
2018-10-09T20:33:07.159Z,98465.88
2018-10-09T20:35:37.042Z,98472.97
2018-10-09T20:38:06.876Z,98469.52
2018-10-09T20:40:36.796Z,98476.11
2018-10-09T20:43:06.623Z,98473.98
2018-10-09T20:45:52.744Z,98472.67
2018-10-09T20:48:23.602Z,98474.06
2018-10-09T20:50:54.662Z,98472.34
2018-10-09T20:53:25.078Z,98470.21
2018-10-09T20:55:55.829Z,98472.92
2018-10-09T20:58:26.449Z,98470.86
2018-10-09T21:00:57.976Z,98470.97
2018-10-09T21:03:29.840Z,98470.58
2018-10-09T21:06:00.525Z,98474.19
2018-10-09T21:08:30.693Z,98472.11
2018-10-09T21:11:00.913Z,98468.23
2018-10-09T21:13:31.170Z,98466.05
2018-10-09T21:16:02.222Z,98470.86
2018-10-09T21:18:32.605Z,98467.37
2018-10-09T21:21:03.363Z,98470.53
2018-10-09T21:23:33.724Z,98473.22
2018-10-09T21:26:03.561Z,98472.41
2018-10-09T21:28:34.138Z,98475.95
2018-10-09T21:31:04.459Z,98475.52
2018-10-09T21:33:34.661Z,98324.41
2018-10-09T21:36:05.044Z,98471.71
2018-10-09T21:38:35.790Z,98472.69
2018-10-09T21:41:06.270Z,98466.22
2018-10-09T21:43:36.276Z,98471.59
2018-10-09T21:46:07.749Z,98441.44
2018-10-09T21:48:38.079Z,98463.92
2018-10-09T21:51:08.212Z,98470.60
2018-10-09T21:53:39.232Z,98470.60
2018-10-09T21:56:09.492Z,98468.02
2018-10-09T21:58:39.651Z,98468.42
2018-10-09T22:01:11.695Z,98463.61
2018-10-09T22:03:42.143Z,98467.56
2018-10-09T22:06:12.424Z,98459.73
2018-10-09T22:08:42.904Z,98460.69
2018-10-09T22:11:13.599Z,98462.05
2018-10-09T22:13:44.625Z,98450.67
2018-10-09T22:16:15.330Z,98449.36
2018-10-09T22:18:46.195Z,98448.89
2018-10-09T22:21:17.458Z,98450.22
2018-10-09T22:23:47.868Z,98454.67
2018-10-09T22:26:18.082Z,98452.16
2018-10-09T22:28:48.617Z,98448.36
2018-10-09T22:31:18.854Z,98454.08
2018-10-09T22:33:48.831Z,98447.95
2018-10-09T22:36:19.849Z,98312.41
2018-10-09T22:38:50.418Z,98450.70
2018-10-09T22:41:21.232Z,98449.89
2018-10-09T22:43:50.953Z,98452.22
2018-10-09T22:46:21.331Z,98455.27
2018-10-09T22:48:52.144Z,98455.41
2018-10-09T22:51:22.268Z,98458.50
2018-10-09T22:53:52.457Z,98459.00
2018-10-09T22:56:22.392Z,98466.55
2018-10-09T22:58:52.682Z,98466.69
2018-10-09T23:01:22.525Z,98468.03
2018-10-09T23:03:53.315Z,98465.04
2018-10-09T23:06:23.408Z,98468.48
2018-10-09T23:08:54.616Z,98467.22
2018-10-09T23:11:25.407Z,98462.06
2018-10-09T23:13:55.403Z,98457.40
2018-10-09T23:16:25.532Z,98457.05
2018-10-09T23:18:56.475Z,98455.73
2018-10-09T23:21:26.103Z,98456.58
2018-10-09T23:23:56.087Z,98465.30
2018-10-09T23:26:26.623Z,98460.13
2018-10-09T23:28:56.806Z,98460.99
2018-10-09T23:31:26.929Z,98465.48
2018-10-09T23:33:56.630Z,98461.44
2018-10-09T23:36:26.294Z,98458.81
2018-10-09T23:38:56.228Z,98458.91
2018-10-09T23:41:26.751Z,98462.09
2018-10-09T23:43:57.317Z,98461.19
2018-10-09T23:46:27.846Z,98466.85
2018-10-09T23:48:58.490Z,98462.13
2018-10-09T23:51:28.393Z,98462.60
2018-10-09T23:54:00.454Z,98461.78
2018-10-09T23:56:30.884Z,98466.27
2018-10-09T23:59:00.823Z,98459.65
